Time;durP1;ratioP1;P1;durP2;ratioP2;P2;SDS_P1;SDS_P2;PMS_P1;PMS_P2;Temp;Humidity;BMP_temperature;BMP_pressure;BME280_temperature;BME280_humidity;BME280_pressure;Samples;Min_cycle;Max_cycle;Signal;HPM_P1;HPM_P2
2024/01/28 00:00:45;;;;;;;1.50;0.85;;;;;;;7.46;48.15;99737.06;4978317;28;20180;-77
2024/01/28 00:03:10;;;;;;;1.10;0.70;;;;;;;7.41;48.28;99737.25;4962111;28;20050;-78
2024/01/28 00:05:39;;;;;;;1.92;0.93;;;;;;;7.39;48.36;99740.88;4962228;28;20039;-77
2024/01/28 00:08:05;;;;;;;1.80;1.00;;;;;;;7.34;48.97;99735.88;4978763;28;20454;-77
2024/01/28 00:10:30;;;;;;;1.52;0.80;;;;;;;7.35;49.14;99740.19;4978609;28;20042;-77
2024/01/28 00:12:56;;;;;;;1.27;0.70;;;;;;;7.29;48.85;99745.66;4994395;28;20565;-79
2024/01/28 00:15:22;;;;;;;1.95;1.00;;;;;;;7.21;48.86;99746.00;4978313;28;20038;-77
2024/01/28 00:17:47;;;;;;;1.77;0.90;;;;;;;7.21;48.77;99751.19;4977615;28;20117;-77
2024/01/28 00:20:13;;;;;;;1.65;0.60;;;;;;;7.10;48.97;99750.00;4961936;28;20042;-79
2024/01/28 00:22:39;;;;;;;2.53;1.00;;;;;;;7.14;49.01;99765.38;4978082;28;20103;-78
2024/01/28 00:25:04;;;;;;;1.48;0.73;;;;;;;7.11;49.29;99769.88;4995266;28;20058;-78
2024/01/28 00:27:30;;;;;;;1.15;0.55;;;;;;;7.06;49.09;99767.47;4995889;28;20109;-77
2024/01/28 00:29:55;;;;;;;1.70;0.70;;;;;;;7.00;49.32;99762.56;4977921;28;20038;-78
2024/01/28 00:32:21;;;;;;;0.93;0.47;;;;;;;7.00;49.29;99778.13;4978019;28;20043;-79
2024/01/28 00:34:47;;;;;;;2.50;1.00;;;;;;;6.90;49.21;99759.53;4945046;28;20046;-77
2024/01/28 00:37:12;;;;;;;1.02;0.60;;;;;;;6.90;49.58;99762.13;4977915;28;20035;-79
2024/01/28 00:39:38;;;;;;;0.82;0.50;;;;;;;6.84;49.65;99759.81;4977778;28;20505;-79
2024/01/28 00:42:06;;;;;;;1.75;0.82;;;;;;;6.84;49.31;99762.41;4977723;28;20042;-79
2024/01/28 00:44:32;;;;;;;;;;;;;;;6.81;48.89;99762.53;4978568;28;20046;-77
2024/01/28 00:46:57;;;;;;;1.23;0.52;;;;;;;6.70;49.56;99748.31;4977648;28;19910;-78
2024/01/28 00:49:29;;;;;;;1.13;0.60;;;;;;;6.70;50.08;99755.22;4962046;28;20070;-79
2024/01/28 00:51:55;;;;;;;0.80;0.50;;;;;;;6.67;49.78;99753.63;4978282;28;20050;-79
2024/01/28 00:54:21;;;;;;;1.63;0.70;;;;;;;6.66;49.82;99756.28;4977879;28;20038;-78
2024/01/28 00:56:47;;;;;;;1.17;0.60;;;;;;;6.59;49.71;99749.66;4977724;28;20101;-77
2024/01/28 00:59:12;;;;;;;1.20;0.50;;;;;;;6.55;49.37;99755.88;4977304;28;20042;-79
2024/01/28 01:01:39;;;;;;;0.90;0.43;;;;;;;6.57;49.69;99764.47;4961473;28;20200;-78
2024/01/28 01:04:05;;;;;;;1.15;0.50;;;;;;;6.51;49.32;99756.03;4961232;28;20485;-78
2024/01/28 01:06:31;;;;;;;1.90;0.50;;;;;;;6.53;49.58;99771.50;4977207;28;20042;-78
2024/01/28 01:08:56;;;;;;;1.00;0.52;;;;;;;6.45;49.80;99760.63;4961173;28;20045;-79
2024/01/28 01:11:23;;;;;;;1.70;0.80;;;;;;;6.44;49.77;99764.16;4961248;28;20034;-78
2024/01/28 01:13:50;;;;;;;1.40;0.75;;;;;;;6.45;49.43;99774.47;4977521;28;20038;-79
2024/01/28 01:16:17;;;;;;;1.42;0.77;;;;;;;6.43;49.77;99772.84;4961788;28;20039;-77
2024/01/28 01:18:43;;;;;;;1.60;0.82;;;;;;;6.40;50.03;99789.34;4961610;28;20125;-79
2024/01/28 01:21:08;;;;;;;1.45;0.68;;;;;;;6.39;49.81;99792.00;4994509;28;20129;-77
2024/01/28 01:23:34;;;;;;;2.13;1.08;;;;;;;6.31;49.82;99774.22;4977455;28;20035;-78
2024/01/28 01:25:59;;;;;;;1.40;0.70;;;;;;;6.33;50.14;99783.59;4977582;28;20050;-78
2024/01/28 01:28:31;;;;;;;2.78;1.20;;;;;;;6.27;50.38;99780.41;4961248;28;20041;-79
2024/01/28 01:31:00;;;;;;;2.88;1.10;;;;;;;6.31;50.15;99793.19;4978628;28;20472;-78
2024/01/28 01:33:26;;;;;;;2.40;1.20;;;;;;;6.29;50.24;99786.38;4961528;28;20030;-78
2024/01/28 01:35:52;;;;;;;2.47;1.00;;;;;;;6.26;50.03;99777.00;4977401;28;20042;-79
2024/01/28 01:38:17;;;;;;;1.77;0.85;;;;;;;6.23;50.30;99779.72;4977286;28;20034;-79
2024/01/28 01:40:43;;;;;;;2.72;0.90;;;;;;;6.22;49.82;99775.41;4977302;28;20042;-78
2024/01/28 01:43:11;;;;;;;2.83;1.05;;;;;;;6.19;50.40;99772.13;4977508;28;20469;-78
2024/01/28 01:45:41;;;;;;;2.47;0.80;;;;;;;6.17;49.70;99772.19;4976988;28;20493;-77
2024/01/28 01:48:10;;;;;;;1.30;0.90;;;;;;;6.17;50.16;99779.97;4960868;28;20050;-79
2024/01/28 01:50:36;;;;;;;2.80;1.08;;;;;;;6.11;49.94;99770.69;4960758;28;20050;-78
2024/01/28 01:53:03;;;;;;;1.83;0.98;;;;;;;6.11;50.35;99767.25;4961011;28;20093;-79
2024/01/28 01:55:28;;;;;;;2.00;0.95;;;;;;;6.14;50.45;99780.09;4960093;28;20038;-78
2024/01/28 01:57:54;;;;;;;2.10;1.00;;;;;;;6.08;50.15;99767.38;4960492;28;20054;-78
2024/01/28 02:00:19;;;;;;;2.50;0.88;;;;;;;6.12;50.51;99779.28;4976677;28;20034;-77
2024/01/28 02:02:46;;;;;;;1.83;1.00;;;;;;;6.10;50.18;99794.06;4976553;28;20105;-77
2024/01/28 02:05:11;;;;;;;1.38;0.90;;;;;;;6.11;50.52;99804.38;4960283;28;20077;-78
2024/01/28 02:07:37;;;;;;;2.22;0.90;;;;;;;6.10;50.21;99804.44;4960414;28;20046;-79
2024/01/28 02:10:03;;;;;;;2.63;1.00;;;;;;;6.06;50.21;99801.13;4960278;28;20410;-77
2024/01/28 02:12:29;;;;;;;1.83;1.00;;;;;;;6.05;50.58;99799.44;4976432;28;20138;-79
2024/01/28 02:15:05;;;;;;;1.80;1.00;;;;;;;6.09;49.96;99808.78;4976275;28;20437;-79
2024/01/28 02:17:31;;;;;;;2.20;0.80;;;;;;;6.04;50.49;99802.97;4976350;28;20410;-79
2024/01/28 02:19:56;;;;;;;1.95;1.00;;;;;;;6.08;50.33;99806.25;4960149;28;20058;-77
2024/01/28 02:22:22;;;;;;;1.85;1.15;;;;;;;6.03;50.09;99795.25;4975939;28;20041;-79
2024/01/28 02:24:47;;;;;;;1.30;0.90;;;;;;;6.07;50.64;99804.56;4976550;28;20042;-79
2024/01/28 02:27:13;;;;;;;1.60;0.90;;;;;;;6.01;50.63;99797.03;4976165;28;20054;-79
2024/01/28 02:29:38;;;;;;;2.00;1.00;;;;;;;6.03;50.18;99811.63;4960391;28;20042;-77
2024/01/28 02:32:04;;;;;;;1.30;0.77;;;;;;;6.06;50.50;99816.69;4976652;28;20030;-79
2024/01/28 02:34:29;;;;;;;2.20;1.15;;;;;;;6.00;50.45;99801.38;4959811;28;20201;-78
2024/01/28 02:36:55;;;;;;;1.55;0.93;;;;;;;6.05;50.67;99814.16;4959736;28;20042;-79
2024/01/28 02:39:20;;;;;;;2.17;0.80;;;;;;;6.04;50.49;99802.97;4992116;28;20038;-78
2024/01/28 02:41:46;;;;;;;2.60;0.90;;;;;;;5.97;50.53;99779.00;4975025;28;20046;-78
2024/01/28 02:44:11;;;;;;;1.10;0.70;;;;;;;6.02;50.27;99791.78;4960160;28;20457;-78
2024/01/28 02:46:37;;;;;;;3.08;0.70;;;;;;;6.02;50.55;99789.19;4975714;28;20074;-78
2024/01/28 02:49:02;;;;;;;1.65;0.90;;;;;;;6.05;50.32;99804.63;4959906;28;20037;-78
2024/01/28 02:51:28;;;;;;;2.03;1.10;;;;;;;6.03;50.32;99798.66;4959572;28;20152;-79
2024/01/28 02:53:53;;;;;;;1.92;1.00;;;;;;;6.08;50.04;99806.25;4975727;28;20034;-77
2024/01/28 02:56:19;;;;;;;3.17;1.10;;;;;;;6.10;50.08;99817.41;4974592;28;20505;-78
2024/01/28 02:58:44;;;;;;;1.50;0.90;;;;;;;6.10;49.79;99815.69;4993161;28;20042;-79
2024/01/28 03:01:10;;;;;;;3.10;1.00;;;;;;;6.11;50.11;99827.72;4993465;28;20120;-78
2024/01/28 03:03:35;;;;;;;1.83;1.05;;;;;;;6.12;49.95;99828.53;4975426;28;20053;-78
2024/01/28 03:06:01;;;;;;;2.20;0.95;;;;;;;6.13;49.91;99836.25;4958952;28;20566;-79
2024/01/28 03:08:26;;;;;;;2.53;1.10;;;;;;;6.13;50.04;99840.63;4975342;28;20042;-79
2024/01/28 03:10:52;;;;;;;1.63;0.90;;;;;;;6.14;49.88;99839.72;4992799;28;20043;-78
2024/01/28 03:13:17;;;;;;;2.55;1.38;;;;;;;6.12;49.90;99837.19;4975637;28;20113;-79
2024/01/28 03:15:43;;;;;;;2.33;1.20;;;;;;;6.12;50.17;99838.91;4975360;28;20042;-79
2024/01/28 03:18:09;;;;;;;3.35;1.20;;;;;;;6.12;49.79;99844.97;4959954;28;20038;-78
2024/01/28 03:20:34;;;;;;;2.22;1.15;;;;;;;6.11;50.26;99847.63;4943289;28;20065;-80
2024/01/28 03:23:00;;;;;;;1.92;1.08;;;;;;;6.10;50.53;99841.59;4975393;28;20030;-79
2024/01/28 03:25:25;;;;;;;2.55;1.35;;;;;;;6.11;50.47;99837.25;4959192;28;20498;-79
2024/01/28 03:27:52;;;;;;;2.83;1.40;;;;;;;6.06;50.19;99842.63;4975465;28;20045;-77
2024/01/28 03:30:18;;;;;;;3.53;1.23;;;;;;;6.04;50.30;99839.25;4959702;28;20046;-77
2024/01/28 03:32:43;;;;;;;2.00;1.25;;;;;;;6.08;49.96;99850.34;4958883;28;20517;-78
2024/01/28 03:35:10;;;;;;;2.40;1.23;;;;;;;6.05;50.12;99850.44;4975636;28;20046;-78
2024/01/28 03:37:35;;;;;;;1.83;1.25;;;;;;;6.06;50.49;99850.38;4975616;28;20212;-79
2024/01/28 03:40:01;;;;;;;1.58;0.98;;;;;;;6.06;50.26;99852.97;4959579;28;20490;-79
2024/01/28 03:42:26;;;;;;;2.85;1.10;;;;;;;6.00;50.49;99835.09;4975263;28;20042;-79
2024/01/28 03:44:52;;;;;;;2.08;1.20;;;;;;;6.09;49.64;99854.63;4975261;28;20038;-77
2024/01/28 03:47:17;;;;;;;2.38;1.23;;;;;;;6.07;50.08;99851.22;4958961;28;20035;-81
2024/01/28 03:49:43;;;;;;;2.45;1.30;;;;;;;6.03;50.14;99845.31;4992572;28;20070;-78
2024/01/28 03:52:08;;;;;;;2.95;1.35;;;;;;;6.10;49.98;99858.88;4958393;28;20054;-77
2024/01/28 03:54:34;;;;;;;1.52;1.00;;;;;;;6.02;50.10;99848.81;4959726;28;20386;-78
2024/01/28 03:56:59;;;;;;;4.38;1.10;;;;;;;6.09;49.85;99863.22;4974988;28;20057;-79
2024/01/28 03:59:25;;;;;;;2.10;1.10;;;;;;;6.09;49.88;99860.63;4974776;28;20042;-78
2024/01/28 04:01:50;;;;;;;1.70;1.10;;;;;;;6.09;50.40;99855.47;4974799;28;20038;-78
2024/01/28 04:04:16;;;;;;;2.08;1.15;;;;;;;6.11;49.97;99858.00;4974920;28;20041;-78
2024/01/28 04:06:43;;;;;;;3.40;1.13;;;;;;;6.04;49.77;99853.94;4974891;28;20038;-79
2024/01/28 04:09:09;;;;;;;2.17;1.08;;;;;;;6.13;49.92;99863.94;4978621;28;20057;-78
2024/01/28 04:11:34;;;;;;;2.45;1.20;;;;;;;6.13;50.24;99869.13;4978309;28;20042;-78
2024/01/28 04:14:00;;;;;;;1.65;1.08;;;;;;;6.09;49.57;99862.41;4978170;28;20042;-79
2024/01/28 04:16:26;;;;;;;3.38;1.10;;;;;;;6.15;49.92;99867.31;4978096;28;20045;-77
2024/01/28 04:18:51;;;;;;;2.75;1.20;;;;;;;6.11;49.42;99868.34;4978267;28;20045;-78
2024/01/28 04:21:17;;;;;;;2.45;1.25;;;;;;;6.13;49.77;99869.97;4963359;28;20509;-77
2024/01/28 04:23:43;;;;;;;2.25;1.10;;;;;;;6.12;49.51;99867.44;4995657;28;20039;-76
2024/01/28 04:26:09;;;;;;;3.35;1.10;;;;;;;6.09;49.53;99865.81;4979638;28;20042;-77
2024/01/28 04:28:35;;;;;;;3.25;1.30;;;;;;;6.10;49.66;99872.72;4979460;28;20036;-78
2024/01/28 04:31:02;;;;;;;2.83;1.30;;;;;;;6.04;49.38;99864.31;4978990;28;20332;-79
2024/01/28 04:33:28;;;;;;;2.03;1.02;;;;;;;6.08;49.70;99884.88;4978640;28;20092;-79
2024/01/28 04:35:53;;;;;;;2.55;1.30;;;;;;;6.05;50.04;99886.75;4979249;28;20054;-79
2024/01/28 04:38:19;;;;;;;3.28;1.55;;;;;;;6.04;49.83;99885.03;4979006;28;20073;-79
2024/01/28 04:40:44;;;;;;;2.60;1.13;;;;;;;6.03;49.60;99883.38;4962967;28;20042;-79
2024/01/28 04:43:10;;;;;;;3.65;1.33;;;;;;;5.99;49.81;99893.00;4962851;28;20057;-79
2024/01/28 04:45:36;;;;;;;3.30;1.20;;;;;;;5.93;49.49;99903.56;4978916;28;20038;-80
2024/01/28 04:48:01;;;;;;;3.65;1.50;;;;;;;5.89;49.61;99891.66;4978727;28;20117;-79
2024/01/28 04:50:27;;;;;;;3.28;1.42;;;;;;;5.93;49.42;99909.63;4962232;28;20110;-81
2024/01/28 04:52:52;;;;;;;4.40;1.60;;;;;;;5.91;49.71;99906.22;4962390;28;20136;-78
2024/01/28 04:55:18;;;;;;;6.43;1.42;;;;;;;5.89;49.53;99909.78;4962366;28;20129;-77
2024/01/28 04:57:43;;;;;;;2.65;1.50;;;;;;;5.87;49.56;99902.06;4962211;28;20038;-79
2024/01/28 05:00:12;;;;;;;2.53;1.65;;;;;;;5.83;49.46;99897.06;4946686;28;20082;-77
2024/01/28 05:02:37;;;;;;;;;;;;;;;5.87;49.63;99914.19;4963677;28;20038;-79
2024/01/28 05:05:03;;;;;;;4.47;1.60;;;;;;;5.80;49.53;99916.16;4995825;28;19968;-78
2024/01/28 05:07:29;;;;;;;4.53;1.92;;;;;;;5.69;49.56;99926.91;4962256;28;20040;-78
2024/01/28 05:09:55;;;;;;;3.72;1.67;;;;;;;5.69;49.40;99924.31;4978248;28;20042;-78
2024/01/28 05:12:20;;;;;;;3.30;1.73;;;;;;;5.69;49.65;99926.91;4962127;28;20057;-78
2024/01/28 05:14:46;;;;;;;4.15;1.80;;;;;;;5.66;49.66;99914.09;4946016;28;20034;-79
2024/01/28 05:17:11;;;;;;;3.72;2.30;;;;;;;5.66;49.27;99921.00;4962296;28;20069;-79
2024/01/28 05:19:37;;;;;;;4.20;2.25;;;;;;;5.65;49.30;99922.75;4977115;28;20093;-77
2024/01/28 05:22:04;;;;;;;4.13;2.80;;;;;;;5.64;49.68;99928.84;4978257;28;20104;-78
2024/01/28 05:24:29;;;;;;;8.52;3.90;;;;;;;5.59;48.92;99928.16;4947214;28;20116;-79
2024/01/28 05:26:55;;;;;;;6.68;4.68;;;;;;;5.57;48.73;99928.22;4978327;28;20461;-78
2024/01/28 05:29:21;;;;;;;7.03;5.22;;;;;;;5.59;49.24;99934.19;4961584;28;20038;-78
2024/01/28 05:31:46;;;;;;;10.00;5.32;;;;;;;5.57;49.31;99924.81;4993568;28;20041;-78
2024/01/28 05:34:12;;;;;;;7.22;5.05;;;;;;;5.62;48.96;99931.47;4961564;28;20517;-80
2024/01/28 05:36:37;;;;;;;15.75;5.93;;;;;;;5.68;49.21;99934.78;4961900;28;20073;-79
2024/01/28 05:39:03;;;;;;;7.53;5.15;;;;;;;5.69;48.57;99933.84;4961719;28;20034;-78
2024/01/28 05:41:29;;;;;;;6.80;4.22;;;;;;;5.75;48.86;99928.44;4977573;28;20328;-79
2024/01/28 05:43:54;;;;;;;6.70;4.15;;;;;;;5.79;48.66;99927.44;4961093;28;20058;-79
2024/01/28 05:46:20;;;;;;;6.32;4.00;;;;;;;5.85;48.83;99936.72;4960994;28;20042;-81
2024/01/28 05:48:45;;;;;;;8.90;3.78;;;;;;;5.86;48.10;99934.06;4961399;28;20066;-80
2024/01/28 05:51:12;;;;;;;4.60;3.22;;;;;;;5.94;48.31;99936.38;4944828;28;20050;-79
2024/01/28 05:53:37;;;;;;;4.45;2.90;;;;;;;5.94;48.13;99934.59;4960468;28;20046;-78
2024/01/28 05:56:04;;;;;;;4.57;2.80;;;;;;;6.06;48.01;99955.84;4944779;28;20495;-80
2024/01/28 05:58:29;;;;;;;7.63;2.85;;;;;;;6.09;47.98;99958.31;4975968;28;20042;-79
2024/01/28 06:00:55;;;;;;;4.18;2.38;;;;;;;6.16;47.73;99967.53;4945107;28;20505;-80
2024/01/28 06:03:20;;;;;;;3.97;2.00;;;;;;;6.17;47.80;99956.28;4960969;28;20508;-79
2024/01/28 06:05:46;;;;;;;3.30;2.20;;;;;;;6.26;47.35;99968.88;4944951;28;20038;-79
2024/01/28 06:08:13;;;;;;;3.63;2.08;;;;;;;6.32;46.97;99983.34;4977051;28;20042;-79
2024/01/28 06:10:39;;;;;;;5.18;2.00;;;;;;;6.37;47.15;99985.75;4962159;28;20049;-78
2024/01/28 06:13:04;;;;;;;5.53;1.92;;;;;;;6.43;46.82;99990.72;4960699;28;20038;-78
2024/01/28 06:15:30;;;;;;;3.67;1.70;;;;;;;6.46;46.76;99988.84;4959941;28;20485;-79
2024/01/28 06:17:56;;;;;;;3.58;1.85;;;;;;;6.52;46.59;99993.78;4960547;28;20096;-80
2024/01/28 06:20:22;;;;;;;2.90;1.70;;;;;;;6.58;46.21;99990.13;4961060;28;20104;-80
2024/01/28 06:22:48;;;;;;;3.28;1.73;;;;;;;6.64;46.96;99986.41;4976811;28;20402;-80
2024/01/28 06:25:13;;;;;;;3.03;1.70;;;;;;;6.72;46.56;99993.88;4977038;28;20061;-79
2024/01/28 06:27:39;;;;;;;2.55;1.30;;;;;;;6.77;46.11;99991.94;4976422;28;20097;-80
2024/01/28 06:30:05;;;;;;;2.60;1.30;;;;;;;6.79;45.97;99982.38;4976319;28;20069;-80
2024/01/28 06:32:32;;;;;;;3.28;1.40;;;;;;;6.86;45.84;99983.78;4960120;28;20042;-79
2024/01/28 06:34:57;;;;;;;2.45;1.42;;;;;;;6.95;45.78;99986.00;4976466;28;20134;-78
2024/01/28 06:37:23;;;;;;;2.50;1.10;;;;;;;7.03;45.14;99980.50;4944187;28;20038;-78
2024/01/28 06:39:51;;;;;;;2.40;1.17;;;;;;;7.17;45.23;99977.34;4944289;28;20042;-79
2024/01/28 06:42:20;;;;;;;3.90;1.20;;;;;;;7.31;45.04;99979.34;4976773;28;20061;-79
2024/01/28 06:44:46;;;;;;;3.67;1.98;;;;;;;7.47;44.73;99993.34;4960347;28;20493;-80
2024/01/28 06:47:11;;;;;;;2.03;1.00;;;;;;;7.70;44.61;99999.28;4960578;28;20034;-78
2024/01/28 06:49:37;;;;;;;2.13;1.17;;;;;;;8.09;43.30;99998.41;4960014;28;20062;-80
2024/01/28 06:52:03;;;;;;;2.78;1.15;;;;;;;8.22;43.52;99990.88;4975042;28;20433;-79
2024/01/28 06:54:28;;;;;;;2.53;1.20;;;;;;;8.18;43.30;99992.81;4976457;28;20038;-80
2024/01/28 06:56:54;;;;;;;2.97;1.38;;;;;;;8.19;43.72;99997.09;4944619;28;20049;-79
2024/01/28 06:59:19;;;;;;;2.70;1.20;;;;;;;8.24;43.45;99991.66;4959664;28;20050;-80
2024/01/28 07:01:45;;;;;;;3.03;1.17;;;;;;;8.30;43.11;99994.84;4959740;28;20088;-80
2024/01/28 07:04:11;;;;;;;2.17;1.02;;;;;;;8.33;43.31;99992.09;4976971;28;20100;-78
2024/01/28 07:06:36;;;;;;;2.40;1.10;;;;;;;8.45;42.67;99993.28;4959935;28;20486;-79
2024/01/28 07:09:02;;;;;;;1.55;0.95;;;;;;;8.53;42.45;99997.31;4959716;28;20046;-79
2024/01/28 07:11:28;;;;;;;2.65;1.00;;;;;;;8.57;42.69;99983.22;4975484;28;20493;-81
2024/01/28 07:13:54;;;;;;;3.45;1.23;;;;;;;8.57;42.25;99981.47;4943921;28;20042;-80
2024/01/28 07:16:19;;;;;;;1.83;0.82;;;;;;;8.71;42.19;99995.56;4959749;28;20058;-80
2024/01/28 07:18:45;;;;;;;2.08;1.13;;;;;;;8.74;42.08;99990.22;4959682;28;20042;-80
2024/01/28 07:21:11;;;;;;;1.85;1.00;;;;;;;9.10;41.49;100003.19;4959598;28;20482;-79
2024/01/28 07:23:36;;;;;;;2.17;1.10;;;;;;;9.27;41.11;99998.91;4943909;28;20038;-80
2024/01/28 07:26:02;;;;;;;3.15;1.20;;;;;;;9.23;41.34;100013.81;4976097;28;20042;-79
2024/01/28 07:28:28;;;;;;;4.43;1.75;;;;;;;9.19;41.40;100007.94;4944083;28;20049;-79
2024/01/28 07:30:53;;;;;;;7.18;3.58;;;;;;;9.17;41.45;100019.34;4943891;28;20042;-78
2024/01/28 07:33:19;;;;;;;7.85;4.28;;;;;;;9.13;40.48;100008.22;4975901;28;20038;-79
2024/01/28 07:35:44;;;;;;;9.40;5.00;;;;;;;9.08;40.81;100015.44;4959881;28;20042;-79
2024/01/28 07:38:10;;;;;;;10.70;5.97;;;;;;;9.11;40.54;100020.50;4943276;28;20108;-79
2024/01/28 07:40:35;;;;;;;12.02;6.40;;;;;;;9.12;40.55;100022.16;4959694;28;20042;-78
2024/01/28 07:43:01;;;;;;;18.40;10.00;;;;;;;9.14;40.41;100025.56;4961153;28;20037;-81
2024/01/28 07:45:26;;;;;;;18.15;10.82;;;;;;;9.19;40.52;100017.53;4979670;28;20466;-79
2024/01/28 07:47:52;;;;;;;23.85;12.93;;;;;;;9.21;40.42;100013.91;4963638;28;20037;-79
2024/01/28 07:50:18;;;;;;;23.80;12.82;;;;;;;9.20;40.40;100009.63;4963246;28;20070;-79
2024/01/28 07:52:43;;;;;;;26.88;13.32;;;;;;;9.20;40.14;100012.22;4963450;28;20042;-81
2024/01/28 07:55:13;;;;;;;21.50;12.63;;;;;;;9.22;40.25;100022.56;4963609;28;20112;-80
2024/01/28 07:57:38;;;;;;;19.98;12.63;;;;;;;9.22;40.40;100026.00;4964234;28;20034;-80
2024/01/28 08:00:06;;;;;;;24.38;13.13;;;;;;;9.27;40.12;100024.94;4979093;28;20046;-80
2024/01/28 08:02:32;;;;;;;21.40;12.63;;;;;;;9.30;40.07;100033.44;4963475;28;20027;-78
2024/01/28 08:04:58;;;;;;;19.08;11.02;;;;;;;9.37;39.94;100037.41;4979411;28;20042;-81
2024/01/28 08:07:25;;;;;;;18.80;10.40;;;;;;;9.40;39.86;100039.03;4978966;28;20485;-80
2024/01/28 08:09:51;;;;;;;16.10;9.30;;;;;;;9.43;39.65;100035.44;4996597;28;20545;-80
2024/01/28 08:12:16;;;;;;;14.93;8.90;;;;;;;9.46;39.81;100048.31;4962899;28;20034;-80
2024/01/28 08:14:42;;;;;;;14.80;8.50;;;;;;;9.50;39.70;100036.81;4996289;28;20045;-79
2024/01/28 08:17:08;;;;;;;12.35;7.65;;;;;;;9.57;39.52;100044.22;4962869;28;20485;-80
2024/01/28 08:19:35;;;;;;;15.27;7.93;;;;;;;9.60;39.63;100048.47;4963082;28;20112;-81
2024/01/28 08:22:00;;;;;;;14.10;7.95;;;;;;;9.59;39.40;100042.38;4979077;28;20043;-81
2024/01/28 08:24:26;;;;;;;15.18;8.48;;;;;;;9.67;39.73;100043.75;4962689;28;20093;-82
2024/01/28 08:26:51;;;;;;;15.98;8.45;;;;;;;9.89;39.66;100046.09;4979070;28;20042;-81
2024/01/28 08:29:17;;;;;;;14.57;8.18;;;;;;;10.18;39.49;100054.97;4996294;28;20046;-82
2024/01/28 08:31:42;;;;;;;17.80;8.63;;;;;;;10.90;39.67;100052.81;4978746;28;20038;-82
2024/01/28 08:34:08;;;;;;;15.32;8.35;;;;;;;11.08;39.45;100050.91;4996548;28;20474;-84
2024/01/28 08:36:33;;;;;;;13.48;8.60;;;;;;;11.17;38.73;100047.78;4962825;28;20046;-82
2024/01/28 08:38:59;;;;;;;13.95;8.25;;;;;;;11.32;38.46;100046.06;4978845;28;20085;-80
2024/01/28 08:41:24;;;;;;;17.02;9.10;;;;;;;11.53;38.22;100054.41;4962509;28;20053;-81
2024/01/28 08:43:50;;;;;;;11.90;7.10;;;;;;;12.19;37.18;100059.22;4962318;28;20034;-80
2024/01/28 08:46:16;;;;;;;10.70;6.35;;;;;;;12.92;36.54;100069.44;4978548;28;20046;-80
2024/01/28 08:48:42;;;;;;;10.75;6.07;;;;;;;13.90;35.12;100053.38;4978582;28;20050;-80
2024/01/28 08:51:08;;;;;;;8.40;5.35;;;;;;;14.91;33.45;100058.47;4978298;28;20075;-81
2024/01/28 08:53:33;;;;;;;8.02;4.55;;;;;;;15.81;31.99;100057.06;4961150;28;20457;-82
2024/01/28 08:55:59;;;;;;;5.35;3.58;;;;;;;16.65;29.91;100054.81;4977839;28;20053;-80
2024/01/28 08:58:24;;;;;;;6.03;3.30;;;;;;;17.43;28.71;100050.22;4978365;28;20042;-80
2024/01/28 09:00:50;;;;;;;5.13;2.97;;;;;;;17.60;28.39;100055.88;4961971;28;20512;-78
2024/01/28 09:03:15;;;;;;;7.15;3.33;;;;;;;17.10;28.51;100069.72;4978016;28;20035;-79
2024/01/28 09:05:41;;;;;;;4.57;2.72;;;;;;;16.89;28.20;100074.94;4978286;28;20062;-82
2024/01/28 09:08:07;;;;;;;6.00;3.08;;;;;;;16.89;28.25;100082.84;4978372;28;20037;-82
2024/01/28 09:10:33;;;;;;;5.38;3.00;;;;;;;17.87;27.56;100064.09;4978315;28;20043;-81
2024/01/28 09:12:58;;;;;;;6.38;3.13;;;;;;;18.55;26.88;100076.75;4961820;28;20079;-80
2024/01/28 09:15:24;;;;;;;6.03;3.30;;;;;;;19.37;26.10;100063.31;4978498;28;20050;-80
2024/01/28 09:17:50;;;;;;;6.38;3.42;;;;;;;19.62;25.85;100065.34;4995433;28;20045;-80
2024/01/28 09:20:15;;;;;;;7.28;4.95;;;;;;;18.86;26.12;100057.34;4961653;28;20042;-81
2024/01/28 09:22:41;;;;;;;11.77;7.60;;;;;;;18.42;26.38;100055.84;4978061;28;20053;-80
2024/01/28 09:25:07;;;;;;;10.98;6.93;;;;;;;18.11;26.04;100056.88;4978010;28;20046;-79
2024/01/28 09:27:32;;;;;;;15.02;9.45;;;;;;;17.89;26.07;100061.34;4977879;28;20045;-80
2024/01/28 09:29:58;;;;;;;15.15;9.02;;;;;;;17.88;26.38;100075.53;4978115;28;20042;-79
2024/01/28 09:32:24;;;;;;;19.17;13.07;;;;;;;20.51;23.73;100071.16;4994363;28;20034;-79
2024/01/28 09:34:51;;;;;;;13.68;8.88;;;;;;;22.99;20.48;100066.41;4961273;28;20043;-80
2024/01/28 09:37:17;;;;;;;12.27;7.70;;;;;;;24.14;19.66;100066.31;4961344;28;20498;-79
2024/01/28 09:39:43;;;;;;;10.40;7.35;;;;;;;24.46;19.33;100067.97;4977554;28;20038;-81
2024/01/28 09:42:27;;;;;;;12.40;7.88;;;;;;;23.48;20.21;100064.63;4978587;28;20030;-82
2024/01/28 09:44:53;;;;;;;9.95;7.38;;;;;;;22.84;20.79;100068.91;4995042;28;20177;-80
2024/01/28 09:47:18;;;;;;;8.75;6.30;;;;;;;22.04;21.44;100059.47;4976694;28;20038;-81
2024/01/28 09:49:44;;;;;;;9.15;6.10;;;;;;;21.95;21.53;100065.72;4994710;28;20414;-80
2024/01/28 09:52:13;;;;;;;8.75;5.18;;;;;;;22.81;20.45;100059.41;4977156;28;20429;-81
2024/01/28 09:54:39;;;;;;;7.57;5.10;;;;;;;24.10;19.93;100062.31;4977539;28;20038;-81
2024/01/28 09:57:05;;;;;;;6.80;4.70;;;;;;;25.73;18.55;100061.34;4977131;28;20410;-80
2024/01/28 09:59:33;;;;;;;5.32;3.80;;;;;;;27.17;17.00;100061.63;4994761;28;20064;-81
2024/01/28 10:01:59;;;;;;;;;;;;;;;28.22;16.49;100050.97;4961659;28;20203;-81
2024/01/28 10:04:25;;;;;;;5.68;4.20;;;;;;;28.91;15.39;100051.81;4961108;28;20349;-81
2024/01/28 10:06:53;;;;;;;4.47;3.30;;;;;;;29.14;15.39;100046.00;4976738;28;20122;-80
2024/01/28 10:09:19;;;;;;;4.82;3.33;;;;;;;29.01;15.28;100054.09;4994145;28;20096;-80
2024/01/28 10:11:45;;;;;;;7.13;3.90;;;;;;;28.08;16.21;100041.22;4977174;28;20046;-82
2024/01/28 10:14:10;;;;;;;5.40;4.43;;;;;;;26.81;16.75;100033.06;4960510;28;20145;-80
2024/01/28 10:16:36;;;;;;;6.07;4.38;;;;;;;25.40;17.57;100029.63;4960702;28;20037;-81
2024/01/28 10:19:02;;;;;;;7.40;3.80;;;;;;;24.46;18.19;100043.94;4976704;28;20355;-80
2024/01/28 10:21:27;;;;;;;4.53;3.10;;;;;;;23.41;18.67;100036.97;4960129;28;20093;-80
2024/01/28 10:23:53;;;;;;;4.53;2.97;;;;;;;22.54;19.78;100029.41;4960116;28;20038;-79
2024/01/28 10:26:20;;;;;;;8.27;5.93;;;;;;;21.83;19.96;100026.16;4960201;28;20034;-80
2024/01/28 10:28:45;;;;;;;10.55;7.30;;;;;;;21.20;20.61;100043.13;4960070;28;20410;-78
2024/01/28 10:31:11;;;;;;;7.10;5.50;;;;;;;21.08;21.11;100039.91;4960018;28;20042;-82
2024/01/28 10:33:36;;;;;;;11.80;6.72;;;;;;;20.59;21.00;100037.59;4959675;28;20049;-82
2024/01/28 10:36:04;;;;;;;12.10;7.55;;;;;;;19.98;21.96;100031.09;4960382;28;20046;-81
2024/01/28 10:38:31;;;;;;;15.43;11.43;;;;;;;19.46;22.34;100031.50;4976618;28;20080;-80
2024/01/28 10:40:56;;;;;;;23.63;17.25;;;;;;;19.08;22.68;100032.41;4960086;28;20038;-82
2024/01/28 10:43:27;;;;;;;31.75;20.90;;;;;;;18.67;23.08;100034.31;4960041;28;20096;-82
2024/01/28 10:45:55;;;;;;;22.15;15.57;;;;;;;18.26;23.70;100027.28;4959919;28;20053;-81
2024/01/28 10:48:20;;;;;;;23.13;16.65;;;;;;;17.94;24.31;100031.91;4960381;28;20044;-80
2024/01/28 10:50:46;;;;;;;23.05;16.50;;;;;;;17.77;24.62;100028.03;4959528;28;20062;-80
2024/01/28 10:53:12;;;;;;;21.13;14.93;;;;;;;17.40;24.80;100032.00;4959933;28;20117;-80
2024/01/28 10:55:39;;;;;;;18.23;13.00;;;;;;;16.98;25.11;100037.25;4944012;28;20521;-81
2024/01/28 10:58:04;;;;;;;22.00;13.32;;;;;;;16.66;25.32;100030.16;4943685;28;20092;-80
2024/01/28 11:00:30;;;;;;;19.15;12.68;;;;;;;16.33;26.31;100038.97;4959952;28;20034;-81
2024/01/28 11:02:58;;;;;;;16.42;10.85;;;;;;;15.99;26.45;100041.66;4975642;28;20034;-79
2024/01/28 11:05:27;;;;;;;16.70;10.55;;;;;;;15.58;26.86;100035.97;4960182;28;20061;-81
2024/01/28 11:07:59;;;;;;;14.05;8.77;;;;;;;15.36;26.83;100042.84;4960290;28;20039;-80
2024/01/28 11:10:26;;;;;;;11.13;7.38;;;;;;;15.14;27.51;100037.53;4945200;28;20046;-80
2024/01/28 11:12:51;;;;;;;9.73;6.55;;;;;;;14.84;27.89;100039.66;4959416;28;20030;-79
2024/01/28 11:15:19;;;;;;;10.23;6.65;;;;;;;14.56;28.33;100046.06;4959293;28;20501;-79
2024/01/28 11:17:44;;;;;;;10.50;6.18;;;;;;;14.37;28.62;100050.97;4974971;28;20048;-79
2024/01/28 11:20:11;;;;;;;9.18;5.43;;;;;;;14.16;29.06;100043.66;4975051;28;20043;-81
2024/01/28 11:22:49;;;;;;;7.72;4.78;;;;;;;14.10;29.21;100038.81;4991237;28;20093;-79
2024/01/28 11:25:19;;;;;;;6.88;4.10;;;;;;;14.25;28.72;100031.66;4975766;28;20038;-79
2024/01/28 11:27:46;;;;;;;6.75;3.88;;;;;;;14.66;28.31;100043.66;4975645;28;20104;-80